Time;durP1;ratioP1;P1;durP2;ratioP2;P2;SDS_P1;SDS_P2;PMS_P1;PMS_P2;Temp;Humidity;BMP_temperature;BMP_pressure;BME280_temperature;BME280_humidity;BME280_pressure;Samples;Min_cycle;Max_cycle;Signal;HPM_P1;HPM_P2
2023/04/12 00:02:11;;;;;;;5.80;3.13;;;8.00;99.90;;;;;;5058800;28;20456;-90
2023/04/12 00:04:39;;;;;;;9.20;3.50;;;8.00;99.90;;;;;;5060351;28;20518;-90
2023/04/12 00:07:05;;;;;;;8.57;3.03;;;8.00;99.90;;;;;;5071247;28;20494;-90
2023/04/12 00:09:35;;;;;;;4.00;3.10;;;7.90;99.90;;;;;;5059721;28;20543;-91
2023/04/12 00:12:05;;;;;;;12.53;2.83;;;8.00;99.90;;;;;;5074998;28;20494;-90
2023/04/12 00:14:31;;;;;;;5.93;3.00;;;8.00;99.90;;;;;;5066475;28;20470;-91
2023/04/12 00:16:58;;;;;;;7.13;3.47;;;8.00;99.90;;;;;;5073720;28;20468;-90
2023/04/12 00:19:26;;;;;;;4.53;2.83;;;8.10;99.90;;;;;;5062883;28;20449;-90
2023/04/12 00:21:53;;;;;;;8.90;3.43;;;8.10;99.90;;;;;;5070946;28;20543;-89
2023/04/12 00:24:19;;;;;;;4.73;3.20;;;8.10;99.90;;;;;;5054005;28;20452;-89
2023/04/12 00:26:46;;;;;;;10.07;3.47;;;8.10;99.90;;;;;;5069206;28;20488;-90
2023/04/12 00:29:16;;;;;;;6.60;3.10;;;8.10;99.90;;;;;;5074845;28;20550;-91
2023/04/12 00:31:43;;;;;;;6.67;2.90;;;8.00;99.90;;;;;;5075835;28;20539;-91
2023/04/12 00:34:10;;;;;;;9.63;3.37;;;8.20;99.90;;;;;;5065356;28;20829;-91
2023/04/12 00:36:37;;;;;;;8.47;2.80;;;8.10;99.90;;;;;;5068160;28;20455;-90
2023/04/12 00:39:03;;;;;;;7.03;2.77;;;8.20;99.90;;;;;;5058252;28;20477;-91
2023/04/12 00:41:30;;;;;;;13.27;3.03;;;8.10;99.90;;;;;;5061833;28;20453;-91
2023/04/12 00:43:57;;;;;;;9.83;3.20;;;8.20;99.90;;;;;;5071758;28;20668;-88
2023/04/12 00:46:25;;;;;;;8.00;3.50;;;8.20;99.90;;;;;;5063404;28;20880;-90
2023/04/12 00:48:52;;;;;;;5.27;3.17;;;8.20;99.90;;;;;;5062080;28;20541;-90
2023/04/12 00:51:21;;;;;;;7.17;2.60;;;8.20;99.90;;;;;;5066114;28;20457;-91
2023/04/12 00:53:48;;;;;;;8.60;3.30;;;8.20;99.90;;;;;;5059182;28;20973;-91
2023/04/12 00:56:14;;;;;;;5.13;2.83;;;8.20;99.90;;;;;;5065365;28;20463;-90
2023/04/12 00:58:41;;;;;;;6.87;2.90;;;8.10;99.90;;;;;;5066446;28;20551;-90
2023/04/12 01:01:09;;;;;;;12.47;3.20;;;8.10;99.90;;;;;;5075592;28;20460;-90
2023/04/12 01:03:41;;;;;;;14.90;3.40;;;8.10;99.90;;;;;;5074328;28;21014;-89
2023/04/12 01:06:13;;;;;;;10.33;3.40;;;8.00;99.90;;;;;;5065100;28;20547;-90
2023/04/12 01:08:52;;;;;;;8.70;3.07;;;8.00;99.90;;;;;;5067737;28;20891;-90
2023/04/12 01:11:27;;;;;;;8.43;2.60;;;8.10;99.90;;;;;;5056750;28;20453;-91
2023/04/12 01:14:03;;;;;;;6.60;2.80;;;8.10;99.90;;;;;;5065661;28;20513;-90
2023/04/12 01:16:42;;;;;;;3.30;2.77;;;8.10;99.90;;;;;;5058826;28;20462;-91
2023/04/12 01:19:29;;;;;;;9.90;2.47;;;8.10;99.90;;;;;;5056337;28;21041;-92
2023/04/12 01:22:09;;;;;;;4.13;2.63;;;8.20;99.90;;;;;;5063313;28;20466;-91
2023/04/12 01:24:47;;;;;;;4.60;2.67;;;8.00;99.90;;;;;;5053047;28;20891;-90
2023/04/12 01:27:29;;;;;;;5.67;3.60;;;8.00;99.90;;;;;;5066341;28;20482;-90
2023/04/12 01:29:58;;;;;;;5.83;2.47;;;8.00;99.90;;;;;;5075283;28;20503;-90
2023/04/12 01:32:25;;;;;;;8.33;2.93;;;8.00;99.90;;;;;;5055674;28;20490;-91
2023/04/12 01:34:53;;;;;;;9.10;2.50;;;8.00;99.90;;;;;;5063114;28;20442;-91
2023/04/12 01:37:21;;;;;;;8.83;2.73;;;8.00;99.90;;;;;;5071126;28;20477;-91
2023/04/12 01:39:49;;;;;;;5.60;2.53;;;8.10;99.90;;;;;;5069656;28;20439;-91
2023/04/12 01:42:20;;;;;;;7.80;2.70;;;8.20;99.90;;;;;;5065901;28;20444;-91
2023/04/12 01:44:47;;;;;;;13.33;3.03;;;8.20;99.90;;;;;;5066419;28;20918;-90
2023/04/12 01:47:14;;;;;;;10.67;3.07;;;8.20;99.90;;;;;;5072333;28;20466;-91
2023/04/12 01:49:53;;;;;;;9.00;2.73;;;8.20;99.90;;;;;;5059899;28;21045;-90
2023/04/12 01:52:21;;;;;;;6.43;3.43;;;8.20;99.90;;;;;;5064911;28;20454;-90
2023/04/12 01:54:51;;;;;;;7.03;2.40;;;8.20;99.90;;;;;;5066913;28;20485;-91
2023/04/12 01:57:21;;;;;;;6.47;2.37;;;8.10;99.90;;;;;;5044081;28;20473;-90
2023/04/12 01:59:50;;;;;;;5.23;2.50;;;8.20;99.90;;;;;;5062219;28;20498;-90
2023/04/12 02:02:17;;;;;;;13.80;3.30;;;8.10;99.90;;;;;;5062828;28;20878;-89
2023/04/12 02:04:45;;;;;;;5.80;2.67;;;8.10;99.90;;;;;;5062189;28;20891;-90
2023/04/12 02:07:13;;;;;;;10.07;3.57;;;8.10;99.90;;;;;;5062112;28;20874;-90
2023/04/12 02:09:40;;;;;;;10.90;2.33;;;8.10;99.90;;;;;;5053589;28;20477;-92
2023/04/12 02:12:07;;;;;;;10.37;3.00;;;8.00;99.90;;;;;;5061372;28;20518;-90
2023/04/12 02:14:35;;;;;;;6.80;2.53;;;8.00;99.90;;;;;;5058216;28;20461;-89
2023/04/12 02:17:03;;;;;;;8.23;2.57;;;8.10;99.90;;;;;;5056387;28;20456;-88
2023/04/12 02:19:31;;;;;;;8.80;2.47;;;8.00;99.90;;;;;;5065793;28;20502;-90
2023/04/12 02:21:57;;;;;;;9.87;3.20;;;8.00;99.90;;;;;;5073908;28;20456;-90
2023/04/12 02:24:24;;;;;;;2.77;2.57;;;8.00;99.90;;;;;;5056195;28;20455;-90
2023/04/12 02:26:51;;;;;;;10.13;2.70;;;7.80;99.90;;;;;;5058101;28;20464;-91
2023/04/12 02:29:18;;;;;;;9.47;3.00;;;7.90;99.90;;;;;;5070858;28;20483;-91
2023/04/12 02:31:47;;;;;;;4.43;2.50;;;7.80;99.90;;;;;;5053898;28;20880;-90
2023/04/12 02:34:14;;;;;;;7.37;2.60;;;7.90;99.90;;;;;;5080068;28;20458;-91
2023/04/12 02:36:41;;;;;;;4.77;2.50;;;7.80;99.90;;;;;;5064994;28;20630;-92
2023/04/12 02:39:09;;;;;;;4.50;2.53;;;7.80;99.90;;;;;;5079016;28;20482;-93
2023/04/12 02:41:36;;;;;;;11.00;2.67;;;7.80;99.90;;;;;;5085480;28;20485;-90
2023/04/12 02:44:03;;;;;;;10.87;2.60;;;7.70;99.90;;;;;;5073106;28;21031;-88
2023/04/12 02:46:30;;;;;;;15.07;3.40;;;7.80;99.90;;;;;;5069301;28;20528;-90
2023/04/12 02:48:58;;;;;;;7.97;2.83;;;7.70;99.90;;;;;;5062106;28;20993;-91
2023/04/12 02:51:25;;;;;;;13.53;2.70;;;7.70;99.90;;;;;;5065554;28;20955;-90
2023/04/12 02:53:51;;;;;;;9.67;2.80;;;7.70;99.90;;;;;;5063597;28;20513;-91
2023/04/12 02:56:18;;;;;;;7.77;2.80;;;7.70;99.90;;;;;;5074317;28;20485;-91
2023/04/12 02:58:45;;;;;;;9.33;3.10;;;7.70;99.90;;;;;;5062649;28;20527;-91
2023/04/12 03:01:13;;;;;;;9.90;3.00;;;7.70;99.90;;;;;;5068904;28;20455;-90
2023/04/12 03:03:40;;;;;;;6.13;2.70;;;7.60;99.90;;;;;;5072333;28;20454;-91
2023/04/12 03:06:08;;;;;;;8.13;3.37;;;7.60;99.90;;;;;;5056612;28;20454;-89
2023/04/12 03:08:36;;;;;;;10.17;3.63;;;7.50;99.90;;;;;;5056876;28;20506;-90
2023/04/12 03:11:03;;;;;;;8.43;4.00;;;7.50;99.90;;;;;;5064835;28;20466;-89
2023/04/12 03:13:30;;;;;;;7.27;3.17;;;7.50;99.90;;;;;;5065188;28;20467;-90
2023/04/12 03:15:59;;;;;;;10.13;4.07;;;7.40;99.90;;;;;;5063409;28;20456;-91
2023/04/12 03:18:26;;;;;;;6.93;3.20;;;7.40;99.90;;;;;;5056401;28;20474;-90
2023/04/12 03:20:52;;;;;;;8.87;4.30;;;7.40;99.90;;;;;;5056275;28;20514;-91
2023/04/12 03:23:21;;;;;;;10.53;3.70;;;7.40;99.90;;;;;;5072375;28;20510;-91
2023/04/12 03:25:47;;;;;;;12.33;4.40;;;7.40;99.90;;;;;;5061647;28;20834;-91
2023/04/12 03:28:14;;;;;;;11.30;3.80;;;7.30;99.90;;;;;;5066058;28;20525;-90
2023/04/12 03:30:41;;;;;;;8.60;3.90;;;7.30;99.90;;;;;;5055352;28;20477;-91
2023/04/12 03:33:07;;;;;;;13.43;5.07;;;7.20;99.90;;;;;;5071768;28;20445;-88
2023/04/12 03:35:34;;;;;;;10.87;4.57;;;7.20;99.90;;;;;;5060114;28;20449;-91
2023/04/12 03:38:01;;;;;;;7.50;4.80;;;7.20;99.90;;;;;;5068722;28;20481;-91
2023/04/12 03:40:29;;;;;;;6.90;4.47;;;7.10;99.90;;;;;;5063733;28;20442;-91
2023/04/12 03:42:56;;;;;;;13.50;5.07;;;7.10;99.90;;;;;;5064589;28;20461;-91
2023/04/12 03:45:23;;;;;;;9.77;5.63;;;7.10;99.90;;;;;;5064930;28;20481;-91
2023/04/12 03:47:49;;;;;;;11.57;5.33;;;7.10;99.90;;;;;;5068529;28;20487;-91
2023/04/12 03:50:16;;;;;;;11.33;5.73;;;7.10;99.90;;;;;;5070455;28;20553;-91
2023/04/12 03:52:43;;;;;;;20.30;5.00;;;7.10;99.90;;;;;;5076014;28;20505;-90
2023/04/12 03:55:10;;;;;;;10.83;4.90;;;7.00;99.90;;;;;;5066234;28;20462;-90
2023/04/12 03:57:38;;;;;;;12.03;5.20;;;7.00;99.90;;;;;;5055585;28;20501;-90
2023/04/12 04:00:08;;;;;;;12.50;5.20;;;6.90;99.90;;;;;;5063149;28;20463;-90
2023/04/12 04:02:35;;;;;;;6.97;4.50;;;6.90;99.90;;;;;;5047512;28;20829;-90
2023/04/12 04:05:02;;;;;;;8.67;5.00;;;6.90;99.90;;;;;;5071020;28;20445;-90
2023/04/12 04:07:30;;;;;;;14.70;5.73;;;6.90;99.90;;;;;;5055208;28;20506;-91
2023/04/12 04:09:57;;;;;;;15.47;5.63;;;7.10;99.90;;;;;;5055330;28;20534;-91
2023/04/12 04:12:24;;;;;;;15.07;6.53;;;6.90;99.90;;;;;;5073933;28;20440;-91
2023/04/12 04:14:52;;;;;;;14.03;7.03;;;6.90;99.90;;;;;;5069128;28;20454;-91
2023/04/12 04:17:19;;;;;;;10.10;7.00;;;6.90;99.90;;;;;;5073782;28;20479;-91
2023/04/12 04:19:45;;;;;;;16.77;7.07;;;6.80;99.90;;;;;;5070067;28;20563;-91
2023/04/12 04:22:12;;;;;;;17.70;7.10;;;6.90;99.90;;;;;;5072757;28;20466;-90
2023/04/12 04:24:39;;;;;;;16.80;8.13;;;6.80;99.90;;;;;;5062474;28;21036;-89
2023/04/12 04:27:06;;;;;;;12.33;9.13;;;6.90;99.90;;;;;;5055585;28;20474;-91
2023/04/12 04:29:32;;;;;;;21.13;9.80;;;6.90;99.90;;;;;;5058642;28;20485;-90
2023/04/12 04:32:00;;;;;;;15.43;9.80;;;6.80;99.90;;;;;;5067976;28;20458;-90
2023/04/12 04:34:27;;;;;;;23.43;11.77;;;6.80;99.90;;;;;;5074178;28;20959;-90
2023/04/12 04:36:54;;;;;;;19.47;9.77;;;6.80;99.90;;;;;;5069064;28;20571;-91
2023/04/12 04:39:21;;;;;;;17.53;10.37;;;6.80;99.90;;;;;;5065501;28;20452;-90
2023/04/12 04:41:53;;;;;;;13.90;8.33;;;6.80;99.90;;;;;;5061309;28;20544;-91
2023/04/12 04:44:20;;;;;;;17.33;9.17;;;6.80;99.90;;;;;;5073808;28;20443;-88
2023/04/12 04:46:48;;;;;;;20.87;9.17;;;6.90;99.90;;;;;;5075530;28;20913;-91
2023/04/12 04:49:16;;;;;;;19.93;8.87;;;6.90;99.90;;;;;;5074246;28;20515;-91
2023/04/12 04:51:43;;;;;;;14.93;8.60;;;6.90;99.90;;;;;;5060893;28;20439;-92
2023/04/12 04:54:10;;;;;;;16.70;8.97;;;6.90;99.90;;;;;;5083775;28;20458;-88
2023/04/12 04:56:36;;;;;;;18.57;8.77;;;6.90;99.90;;;;;;5070763;28;20859;-90
2023/04/12 04:59:03;;;;;;;16.53;9.20;;;6.80;99.90;;;;;;5059426;28;21005;-90
2023/04/12 05:01:30;;;;;;;18.83;8.20;;;6.80;99.90;;;;;;5054371;28;20849;-90
2023/04/12 05:03:57;;;;;;;17.47;8.83;;;6.80;99.90;;;;;;5062677;28;20493;-90
2023/04/12 05:06:26;;;;;;;14.70;7.70;;;6.80;99.90;;;;;;5062547;28;20459;-90
2023/04/12 05:08:52;;;;;;;14.83;6.10;;;6.70;99.90;;;;;;5054316;28;20488;-90
2023/04/12 05:11:19;;;;;;;12.70;7.30;;;6.80;99.90;;;;;;5064662;28;20498;-91
2023/04/12 05:13:46;;;;;;;11.90;6.90;;;6.70;99.90;;;;;;5070051;28;20449;-92
2023/04/12 05:16:13;;;;;;;16.23;7.30;;;6.70;99.90;;;;;;5073341;28;20818;-90
2023/04/12 05:18:39;;;;;;;8.47;6.90;;;6.70;99.90;;;;;;5074686;28;20807;-91
2023/04/12 05:21:07;;;;;;;11.70;7.50;;;6.70;99.90;;;;;;5066791;28;20445;-90
2023/04/12 05:23:37;;;;;;;12.93;7.50;;;6.70;99.90;;;;;;5065843;28;20438;-92
2023/04/12 05:26:04;;;;;;;12.40;6.30;;;6.70;99.90;;;;;;5074215;28;21017;-91
2023/04/12 05:28:31;;;;;;;9.73;6.57;;;6.70;99.90;;;;;;5073740;28;20475;-91
2023/04/12 05:30:58;;;;;;;7.77;6.10;;;6.70;99.90;;;;;;5059422;28;20486;-91
2023/04/12 05:33:25;;;;;;;15.97;6.73;;;6.70;99.90;;;;;;5065675;28;20505;-91
2023/04/12 05:35:51;;;;;;;8.67;6.17;;;6.70;99.90;;;;;;5075149;28;20458;-91
2023/04/12 05:38:18;;;;;;;10.10;5.57;;;6.80;99.90;;;;;;5084853;28;20451;-91
2023/04/12 05:40:47;;;;;;;16.50;6.43;;;6.70;99.90;;;;;;5081324;28;20444;-91
2023/04/12 05:43:14;;;;;;;11.47;4.70;;;6.70;99.90;;;;;;5076103;28;20479;-92
2023/04/12 05:45:41;;;;;;;12.60;5.33;;;6.70;99.90;;;;;;5054489;28;20460;-91
2023/04/12 05:48:08;;;;;;;9.50;5.00;;;6.70;99.90;;;;;;5054316;28;20492;-91
2023/04/12 05:50:35;;;;;;;15.83;5.77;;;6.70;99.90;;;;;;5057629;28;20486;-91
2023/04/12 05:53:01;;;;;;;9.43;5.00;;;6.80;99.90;;;;;;5074091;28;20466;-91
2023/04/12 05:55:28;;;;;;;10.70;5.13;;;6.70;99.90;;;;;;5073518;28;20458;-92
2023/04/12 05:57:57;;;;;;;9.67;4.70;;;6.70;99.90;;;;;;5065630;28;20516;-91
2023/04/12 06:00:25;;;;;;;8.60;4.87;;;6.80;99.90;;;;;;5063953;28;20466;-92
2023/04/12 06:02:51;;;;;;;11.37;4.43;;;6.70;99.90;;;;;;5055028;28;20474;-90
2023/04/12 06:05:18;;;;;;;9.53;5.13;;;6.70;99.90;;;;;;5062667;28;20444;-91
2023/04/12 06:07:47;;;;;;;7.10;4.30;;;6.90;99.90;;;;;;5061076;28;20533;-92
2023/04/12 06:10:14;;;;;;;9.67;4.30;;;6.80;99.90;;;;;;5063280;28;20510;-90
2023/04/12 06:12:41;;;;;;;8.43;4.47;;;6.80;99.90;;;;;;5062591;28;20459;-91
2023/04/12 06:15:10;;;;;;;8.77;4.83;;;6.80;99.90;;;;;;5053974;28;20475;-91
2023/04/12 06:17:37;;;;;;;7.70;4.90;;;6.80;99.90;;;;;;5066181;28;20469;-91
2023/04/12 06:20:06;;;;;;;14.50;5.60;;;6.80;99.90;;;;;;5067377;28;20528;-91
2023/04/12 06:22:33;;;;;;;10.43;6.23;;;6.80;99.90;;;;;;5061345;28;20457;-92
2023/04/12 06:24:59;;;;;;;9.37;5.50;;;6.90;99.90;;;;;;5064133;28;20458;-90
2023/04/12 06:27:26;;;;;;;6.53;5.40;;;6.80;99.90;;;;;;5069670;28;20536;-92
2023/04/12 06:29:53;;;;;;;8.83;5.20;;;6.80;99.90;;;;;;5072633;28;20489;-91
2023/04/12 06:32:21;;;;;;;16.50;5.53;;;6.80;99.90;;;;;;5075030;28;20454;-91
2023/04/12 06:34:48;;;;;;;11.63;5.10;;;6.80;99.90;;;;;;5062838;28;20463;-91
2023/04/12 06:37:15;;;;;;;9.30;5.03;;;6.80;99.90;;;;;;5077246;28;20464;-90
2023/04/12 06:39:41;;;;;;;8.03;4.87;;;6.80;99.90;;;;;;5078665;28;20458;-91
2023/04/12 06:42:08;;;;;;;8.13;5.10;;;6.80;99.90;;;;;;5070564;28;20457;-91
2023/04/12 06:44:35;;;;;;;8.63;5.10;;;6.80;99.90;;;;;;5077313;28;20502;-91
2023/04/12 06:47:02;;;;;;;6.27;4.30;;;6.80;99.90;;;;;;5070378;28;20949;-91
2023/04/12 06:49:30;;;;;;;10.67;5.10;;;6.80;99.90;;;;;;5056902;28;20464;-91
2023/04/12 06:51:57;;;;;;;10.43;5.00;;;6.80;99.90;;;;;;5063345;28;20534;-91
2023/04/12 06:54:23;;;;;;;6.70;4.90;;;6.80;99.90;;;;;;5076687;28;20675;-91
2023/04/12 06:56:50;;;;;;;7.27;5.30;;;6.80;99.90;;;;;;5066165;28;20481;-91
2023/04/12 06:59:17;;;;;;;5.80;5.03;;;6.80;99.90;;;;;;5066170;28;20434;-91
2023/04/12 07:01:44;;;;;;;8.30;5.00;;;6.90;99.90;;;;;;5056333;28;20543;-92
2023/04/12 07:04:11;;;;;;;8.13;5.10;;;6.80;99.90;;;;;;5056692;28;20515;-91
2023/04/12 07:06:39;;;;;;;9.40;4.93;;;6.80;99.90;;;;;;5077015;28;20533;-90
2023/04/12 07:09:06;;;;;;;9.70;4.67;;;6.80;99.90;;;;;;5062930;28;20506;-92
2023/04/12 07:11:32;;;;;;;10.43;4.93;;;6.80;99.90;;;;;;5074037;28;20910;-90
2023/04/12 07:13:59;;;;;;;7.50;4.90;;;6.90;99.90;;;;;;5063211;28;20502;-91
2023/04/12 07:16:26;;;;;;;5.13;4.60;;;6.80;99.90;;;;;;5069329;28;20455;-91
2023/04/12 07:18:53;;;;;;;7.03;4.50;;;6.80;99.90;;;;;;5065014;28;20489;-91
2023/04/12 07:21:19;;;;;;;5.90;4.40;;;6.90;99.90;;;;;;5057763;28;20506;-92
2023/04/12 07:23:50;;;;;;;9.30;4.90;;;6.80;99.90;;;;;;5057837;28;20446;-92
2023/04/12 07:26:16;;;;;;;4.90;4.40;;;6.80;99.90;;;;;;5065332;28;20848;-89
2023/04/12 07:28:43;;;;;;;5.43;4.60;;;6.80;99.90;;;;;;5069065;28;20475;-92
2023/04/12 07:31:10;;;;;;;8.40;4.20;;;6.80;99.90;;;;;;5077425;28;20494;-91
2023/04/12 07:33:37;;;;;;;4.37;4.03;;;6.80;99.90;;;;;;5075521;28;20460;-91
2023/04/12 07:36:05;;;;;;;6.23;4.20;;;6.80;99.90;;;;;;5076360;28;20496;-91
2023/04/12 07:38:31;;;;;;;9.60;4.73;;;6.80;99.90;;;;;;5077535;28;20500;-91
2023/04/12 07:41:00;;;;;;;8.67;4.63;;;6.80;99.90;;;;;;5074451;28;20466;-91
2023/04/12 07:43:26;;;;;;;10.73;4.93;;;6.80;99.90;;;;;;5075882;28;20668;-92
2023/04/12 07:45:54;;;;;;;15.53;6.00;;;6.80;99.90;;;;;;5070386;28;20452;-91
2023/04/12 07:48:21;;;;;;;5.47;4.83;;;6.90;99.90;;;;;;5068816;28;20460;-92
2023/04/12 07:50:47;;;;;;;10.07;6.50;;;6.90;99.90;;;;;;5057271;28;20474;-91
2023/04/12 07:53:18;;;;;;;9.20;5.57;;;6.90;99.90;;;;;;5065959;28;20952;-91
2023/04/12 07:55:45;;;;;;;6.47;5.40;;;6.90;99.90;;;;;;5069342;28;20467;-91
2023/04/12 07:58:13;;;;;;;5.90;4.80;;;6.90;99.90;;;;;;5061301;28;20477;-92
2023/04/12 08:00:40;;;;;;;6.97;4.77;;;7.00;99.90;;;;;;5060464;28;20451;-92
2023/04/12 08:03:06;;;;;;;7.50;5.30;;;7.00;99.90;;;;;;5071021;28;20450;-91
2023/04/12 08:05:33;;;;;;;5.60;4.37;;;7.00;99.90;;;;;;5076408;28;20478;-92
2023/04/12 08:08:00;;;;;;;8.53;4.20;;;7.00;99.90;;;;;;5064261;28;20468;-91
2023/04/12 08:10:27;;;;;;;4.97;4.37;;;7.00;99.90;;;;;;5057677;28;21001;-92
2023/04/12 08:12:53;;;;;;;4.90;4.50;;;7.00;99.90;;;;;;5057904;28;20460;-91
2023/04/12 08:15:22;;;;;;;6.50;4.13;;;7.10;99.90;;;;;;5056499;28;20442;-91
2023/04/12 08:17:48;;;;;;;4.20;3.80;;;7.10;99.90;;;;;;5078583;28;20481;-90
2023/04/12 08:20:15;;;;;;;6.93;4.40;;;7.10;99.90;;;;;;5070734;28;20477;-91
2023/04/12 08:22:42;;;;;;;5.03;3.83;;;7.20;99.90;;;;;;5069211;28;20457;-89
2023/04/12 08:25:09;;;;;;;5.33;4.10;;;7.20;99.90;;;;;;5077646;28;20502;-89
2023/04/12 08:27:36;;;;;;;5.70;3.97;;;7.20;99.90;;;;;;5077170;28;20482;-90
2023/04/12 08:30:03;;;;;;;9.03;3.47;;;7.20;99.90;;;;;;5062359;28;20523;-89
2023/04/12 08:32:31;;;;;;;6.53;4.10;;;7.20;99.90;;;;;;5058097;28;21040;-91
2023/04/12 08:34:59;;;;;;;8.03;4.20;;;7.20;99.90;;;;;;5086111;28;20439;-90
2023/04/12 08:37:25;;;;;;;5.50;4.13;;;7.20;99.90;;;;;;5097904;28;20504;-90
2023/04/12 08:39:52;;;;;;;5.60;4.10;;;7.30;99.90;;;;;;5072270;28;20450;-90
2023/04/12 08:42:19;;;;;;;6.77;4.20;;;7.30;99.90;;;;;;5056352;28;20460;-90
2023/04/12 08:44:46;;;;;;;8.00;4.50;;;7.30;99.90;;;;;;5064429;28;20480;-90
2023/04/12 08:47:13;;;;;;;5.40;3.20;;;7.30;99.90;;;;;;5056961;28;20481;-91
2023/04/12 08:49:41;;;;;;;5.90;3.73;;;7.30;99.90;;;;;;5063408;28;20454;-90
2023/04/12 08:52:09;;;;;;;6.77;4.67;;;7.40;99.90;;;;;;5055504;28;20490;-91
2023/04/12 08:54:36;;;;;;;7.53;3.97;;;7.40;99.90;;;;;;5064991;28;20988;-91
2023/04/12 08:57:06;;;;;;;4.83;3.20;;;7.40;99.90;;;;;;5075257;28;22276;-91
2023/04/12 08:59:37;;;;;;;5.80;3.70;;;7.40;99.90;;;;;;5075079;28;20536;-91
2023/04/12 09:02:04;;;;;;;4.20;3.40;;;7.40;99.90;;;;;;5076451;28;20449;-90
2023/04/12 09:04:31;;;;;;;4.13;3.73;;;7.40;99.90;;;;;;5058891;28;20475;-91
2023/04/12 09:06:59;;;;;;;3.73;3.33;;;7.40;99.90;;;;;;5076250;28;20455;-90
2023/04/12 09:09:42;;;;;;;5.40;3.60;;;7.50;99.90;;;;;;5075145;28;20467;-90
2023/04/12 09:12:09;;;;;;;3.90;3.43;;;7.50;99.90;;;;;;5057331;28;20499;-89
2023/04/12 09:14:37;;;;;;;3.67;3.37;;;7.50;99.90;;;;;;5072559;28;20874;-89
2023/04/12 09:17:05;;;;;;;3.53;3.23;;;7.50;99.90;;;;;;5069558;28;20566;-90
2023/04/12 09:19:32;;;;;;;7.07;3.90;;;7.50;99.90;;;;;;5056840;28;20454;-89
2023/04/12 09:22:01;;;;;;;4.20;3.80;;;7.60;99.90;;;;;;5075470;28;20442;-89
2023/04/12 09:24:28;;;;;;;5.57;3.90;;;7.60;99.90;;;;;;5066553;28;20526;-90
2023/04/12 09:27:03;;;;;;;4.00;3.60;;;7.60;99.90;;;;;;5062137;28;20466;-90
2023/04/12 09:29:30;;;;;;;5.53;4.10;;;7.60;99.90;;;;;;5063885;28;20545;-91
2023/04/12 09:32:00;;;;;;;4.23;3.70;;;7.60;99.90;;;;;;5069185;28;20510;-91
2023/04/12 09:34:27;;;;;;;4.67;3.70;;;7.60;99.90;;;;;;5065045;28;20886;-91
2023/04/12 09:36:54;;;;;;;8.30;3.97;;;7.60;99.90;;;;;;5074872;28;20449;-90
2023/04/12 09:39:31;;;;;;;8.50;4.83;;;7.60;99.90;;;;;;5074487;28;20507;-90
2023/04/12 09:42:05;;;;;;;4.00;3.60;;;7.70;99.90;;;;;;5058081;28;20550;-91
2023/04/12 09:44:33;;;;;;;5.13;3.73;;;7.70;99.90;;;;;;5071952;28;20512;-91
2023/04/12 09:47:01;;;;;;;4.03;3.63;;;7.80;99.90;;;;;;5075280;28;20471;-91
2023/04/12 09:49:38;;;;;;;5.40;3.70;;;7.70;99.90;;;;;;5057668;28;20453;-90
2023/04/12 09:52:06;;;;;;;6.57;3.97;;;7.70;99.90;;;;;;5064588;28;20512;-91
2023/04/12 09:54:38;;;;;;;4.40;4.00;;;7.70;99.90;;;;;;5054132;28;20470;-91
2023/04/12 09:57:07;;;;;;;4.17;3.90;;;7.70;99.90;;;;;;5054993;28;20565;-91
2023/04/12 09:59:37;;;;;;;4.10;3.73;;;7.70;99.90;;;;;;5070461;28;20524;-91
2023/04/12 10:02:08;;;;;;;5.27;4.17;;;7.70;99.90;;;;;;5054818;28;20482;-91
2023/04/12 10:04:37;;;;;;;4.70;4.17;;;7.80;99.90;;;;;;5054298;28;20437;-91
2023/04/12 10:07:04;;;;;;;4.80;3.80;;;7.80;99.90;;;;;;5070296;28;20513;-91
2023/04/12 10:09:31;;;;;;;6.17;4.13;;;7.90;99.90;;;;;;5073913;28;20864;-91
2023/04/12 10:12:02;;;;;;;3.73;3.30;;;7.90;99.90;;;;;;5064054;28;20480;-90
2023/04/12 10:14:29;;;;;;;7.63;3.80;;;7.90;99.90;;;;;;5056158;28;21033;-90
2023/04/12 10:16:57;;;;;;;4.47;4.07;;;8.00;99.90;;;;;;5066887;28;20451;-90
2023/04/12 10:19:26;;;;;;;4.80;4.30;;;8.00;99.90;;;;;;5075276;28;20880;-88
2023/04/12 10:21:53;;;;;;;6.00;4.10;;;8.00;99.90;;;;;;5074465;28;20515;-90
2023/04/12 10:24:21;;;;;;;4.50;4.10;;;8.00;99.90;;;;;;5066842;28;20456;-91
2023/04/12 10:26:49;;;;;;;4.90;3.80;;;8.00;99.90;;;;;;5061529;28;20520;-91
2023/04/12 10:29:31;;;;;;;4.93;4.43;;;8.10;99.90;;;;;;5054940;28;20460;-91
2023/04/12 10:32:17;;;;;;;7.03;4.07;;;8.10;99.90;;;;;;5056866;28;20650;-91
2023/04/12 10:34:44;;;;;;;4.90;4.40;;;8.10;99.90;;;;;;5053319;28;20481;-91
2023/04/12 10:37:13;;;;;;;4.23;3.80;;;8.20;99.90;;;;;;5060729;28;20449;-91
2023/04/12 10:39:41;;;;;;;4.70;4.20;;;8.20;99.90;;;;;;5058518;28;20575;-91
2023/04/12 10:42:22;;;;;;;4.47;4.07;;;8.20;99.90;;;;;;5058806;28;20509;-90
2023/04/12 10:44:51;;;;;;;4.90;4.40;;;8.20;99.90;;;;;;5054620;28;20451;-91
2023/04/12 10:47:52;;;;;;;5.00;4.60;;;8.30;99.90;;;;;;5063523;28;20521;-90
2023/04/12 10:50:24;;;;;;;5.27;4.80;;;8.30;99.90;;;;;;5055481;28;20494;-91
2023/04/12 10:53:21;;;;;;;9.30;5.97;;;8.30;99.90;;;;;;5063226;28;20511;-91
2023/04/12 10:55:48;;;;;;;6.27;5.37;;;8.30;99.90;;;;;;5057937;28;20507;-91
2023/04/12 10:58:48;;;;;;;6.70;6.10;;;8.40;99.90;;;;;;5074693;28;20961;-92
2023/04/12 11:01:17;;;;;;;7.60;6.37;;;8.50;99.90;;;;;;5075180;28;20470;-92
2023/04/12 11:04:05;;;;;;;8.77;5.20;;;8.60;99.90;;;;;;5055895;28;20487;-91
2023/04/12 11:06:48;;;;;;;6.70;6.00;;;8.60;99.90;;;;;;5063908;28;21054;-92
2023/04/12 11:09:19;;;;;;;6.83;5.77;;;8.80;99.90;;;;;;5069224;28;20545;-91
2023/04/12 11:11:46;;;;;;;9.47;6.90;;;8.90;99.90;;;;;;5069430;28;20483;-91
2023/04/12 11:14:14;;;;;;;7.70;6.30;;;9.00;99.90;;;;;;5078606;28;20966;-91
2023/04/12 11:17:18;;;;;;;8.33;6.73;;;9.10;99.90;;;;;;5077558;28;20507;-91
2023/04/12 11:19:51;;;;;;;6.40;5.80;;;9.10;99.90;;;;;;5074551;28;20841;-92
2023/04/12 11:22:20;;;;;;;7.67;6.00;;;9.10;99.90;;;;;;5057665;28;20477;-91
2023/04/12 11:24:48;;;;;;;7.90;7.20;;;9.10;99.90;;;;;;5074105;28;20515;-92
2023/04/12 11:27:16;;;;;;;10.03;7.23;;;9.10;99.90;;;;;;5065974;28;20478;-92
2023/04/12 11:29:43;;;;;;;7.60;6.80;;;9.10;99.90;;;;;;5071261;28;20550;-92
2023/04/12 11:32:13;;;;;;;8.10;7.30;;;9.20;99.90;;;;;;5080146;28;20469;-92
2023/04/12 11:34:40;;;;;;;7.70;6.90;;;9.30;99.90;;;;;;5095380;28;20443;-93
2023/04/12 11:37:09;;;;;;;7.00;6.30;;;9.30;99.90;;;;;;5068067;28;20496;-91
2023/04/12 11:39:38;;;;;;;6.70;6.00;;;9.40;99.90;;;;;;5074997;28;20469;-92
2023/04/12 11:42:07;;;;;;;6.77;6.07;;;9.40;99.90;;;;;;5062912;28;20459;-92
2023/04/12 11:44:35;;;;;;;9.80;6.80;;;9.50;99.90;;;;;;5076852;28;20884;-91
2023/04/12 11:47:02;;;;;;;7.57;6.03;;;9.60;99.90;;;;;;5064000;28;20463;-92
2023/04/12 11:49:29;;;;;;;6.03;5.50;;;9.60;99.90;;;;;;5056175;28;20503;-90
2023/04/12 11:52:02;;;;;;;4.03;3.73;;;9.70;99.90;;;;;;5058511;28;20479;-92
2023/04/12 11:54:33;;;;;;;5.77;3.73;;;9.80;99.90;;;;;;5057796;28;20469;-89
2023/04/12 11:57:00;;;;;;;5.00;4.60;;;9.90;99.90;;;;;;5057304;28;20487;-92
2023/04/12 11:59:32;;;;;;;5.30;4.77;;;10.10;99.90;;;;;;5058309;28;20459;-92
2023/04/12 12:02:00;;;;;;;4.27;3.97;;;10.30;99.90;;;;;;5054817;28;20907;-92
2023/04/12 12:04:28;;;;;;;3.03;2.83;;;10.40;99.90;;;;;;5077017;28;20531;-91
2023/04/12 12:06:56;;;;;;;3.00;2.90;;;10.50;99.90;;;;;;5069467;28;20515;-91
2023/04/12 12:09:23;;;;;;;3.40;3.10;;;10.50;99.90;;;;;;5070379;28;20507;-91
2023/04/12 12:11:51;;;;;;;3.80;3.50;;;10.70;99.90;;;;;;5068163;28;20617;-91
2023/04/12 12:14:19;;;;;;;3.67;3.47;;;10.80;99.90;;;;;;5075912;28;20456;-91
2023/04/12 12:16:53;;;;;;;3.57;3.27;;;10.90;99.90;;;;;;5069299;28;20464;-91
2023/04/12 12:19:28;;;;;;;3.00;2.80;;;11.00;99.90;;;;;;5069603;28;20480;-92
2023/04/12 12:21:54;;;;;;;2.13;2.03;;;11.10;99.90;;;;;;5068776;28;20538;-92
2023/04/12 12:24:22;;;;;;;2.43;2.20;;;11.30;99.90;;;;;;5076513;28;21167;-91
2023/04/12 12:26:51;;;;;;;2.67;2.47;;;11.40;99.90;;;;;;5061103;28;20442;-91
2023/04/12 12:29:18;;;;;;;2.40;2.20;;;11.50;99.90;;;;;;5079419;28;20452;-92
2023/04/12 12:31:47;;;;;;;2.50;2.40;;;11.50;99.90;;;;;;5077991;28;20500;-92
2023/04/12 12:34:18;;;;;;;2.50;2.30;;;11.40;99.90;;;;;;5060695;28;20462;-91
2023/04/12 12:36:54;;;;;;;2.20;2.10;;;11.50;99.90;;;;;;5068227;28;20467;-90
2023/04/12 12:39:21;;;;;;;1.83;1.73;;;11.50;99.90;;;;;;5076904;28;20539;-91
2023/04/12 12:41:55;;;;;;;2.07;1.97;;;11.50;99.90;;;;;;5072136;28;20502;-91
2023/04/12 12:44:22;;;;;;;2.10;2.00;;;11.50;99.90;;;;;;5060081;28;20432;-89
2023/04/12 12:46:48;;;;;;;1.93;1.70;;;11.40;99.90;;;;;;5058003;28;20522;-92
2023/04/12 12:49:15;;;;;;;2.00;1.80;;;11.40;99.90;;;;;;5070719;28;20461;-89
2023/04/12 12:51:42;;;;;;;3.77;2.20;;;11.40;99.90;;;;;;5065775;28;20457;-91
2023/04/12 12:54:09;;;;;;;1.80;1.70;;;11.30;99.90;;;;;;5062193;28;20904;-91
2023/04/12 12:56:36;;;;;;;2.77;2.57;;;11.40;99.90;;;;;;5068131;28;20511;-91
2023/04/12 12:59:04;;;;;;;2.40;2.20;;;11.30;99.90;;;;;;5068292;28;20464;-91
2023/04/12 13:01:30;;;;;;;5.90;2.07;;;11.50;99.90;;;;;;5060677;28;20476;-90